Time;durP1;ratioP1;P1;durP2;ratioP2;P2;SDS_P1;SDS_P2;PMS_P1;PMS_P2;Temp;Humidity;BMP_temperature;BMP_pressure;BME280_temperature;BME280_humidity;BME280_pressure;Samples;Min_cycle;Max_cycle;Signal;HPM_P1;HPM_P2
2022/05/31 00:05:52;;;;;;;0.20;0.00;;;17.70;99.90;;;;;;26427959;22;20166;-76
2022/05/31 00:15:56;;;;;;;0.20;0.10;;;17.70;99.90;;;;;;26429856;22;20193;-76
2022/05/31 00:26:02;;;;;;;0.20;0.00;;;17.70;99.90;;;;;;26434807;22;20228;-75
2022/05/31 00:36:06;;;;;;;0.20;0.10;;;17.60;99.90;;;;;;26434924;22;20209;-73
2022/05/31 00:46:11;;;;;;;0.20;0.10;;;17.70;99.90;;;;;;26407619;22;20158;-74
2022/05/31 00:56:19;;;;;;;0.20;0.00;;;18.10;99.90;;;;;;26434427;22;20189;-74
2022/05/31 01:06:30;;;;;;;0.20;0.10;;;18.80;99.90;;;;;;26435348;22;20151;-75
2022/05/31 01:16:34;;;;;;;0.20;0.10;;;18.90;99.90;;;;;;26432417;22;20463;-76
2022/05/31 01:26:47;;;;;;;0.20;0.00;;;18.70;99.90;;;;;;26405246;22;20224;-75
2022/05/31 01:36:54;;;;;;;0.20;0.10;;;18.90;99.90;;;;;;26433552;22;20181;-74
2022/05/31 01:47:02;;;;;;;0.20;0.10;;;19.00;99.90;;;;;;26431927;22;20162;-75
2022/05/31 01:57:09;;;;;;;0.20;0.00;;;19.00;99.90;;;;;;26432659;22;20217;-75
2022/05/31 02:07:17;;;;;;;0.20;0.00;;;19.10;99.90;;;;;;26432393;22;20177;-74
2022/05/31 02:17:25;;;;;;;0.20;0.00;;;19.10;99.90;;;;;;26403836;22;20174;-74
2022/05/31 02:27:35;;;;;;;0.20;0.10;;;19.00;99.90;;;;;;26428763;22;20758;-75
2022/05/31 02:37:39;;;;;;;0.20;0.10;;;18.90;99.90;;;;;;26403217;22;20197;-77
2022/05/31 02:47:45;;;;;;;0.20;0.10;;;18.90;99.90;;;;;;26400949;22;20173;-75
2022/05/31 02:57:48;;;;;;;0.20;0.10;;;18.70;99.90;;;;;;26403283;22;20205;-75
2022/05/31 03:07:54;;;;;;;0.20;0.00;;;18.40;99.90;;;;;;26374223;22;20173;-77
2022/05/31 03:18:03;;;;;;;0.20;0.10;;;18.30;99.90;;;;;;26403405;22;20215;-77
2022/05/31 03:28:10;;;;;;;0.20;0.10;;;18.10;99.90;;;;;;26401227;22;20201;-78
2022/05/31 03:38:14;;;;;;;0.20;0.10;;;18.10;99.90;;;;;;26402123;22;20205;-76
2022/05/31 03:48:20;;;;;;;0.20;0.10;;;18.10;99.90;;;;;;26428314;22;20170;-76
2022/05/31 03:58:24;;;;;;;0.20;0.10;;;17.60;99.90;;;;;;26435186;22;20193;-75
2022/05/31 04:08:30;;;;;;;0.20;0.10;;;17.50;99.90;;;;;;26437242;22;20170;-77
2022/05/31 04:18:34;;;;;;;0.20;0.10;;;17.80;99.90;;;;;;26406962;22;20178;-77
2022/05/31 04:28:39;;;;;;;0.20;0.10;;;17.70;99.90;;;;;;26435341;22;20193;-76
2022/05/31 04:38:48;;;;;;;0.20;0.00;;;17.70;99.90;;;;;;26376589;22;20185;-78
2022/05/31 04:48:53;;;;;;;0.20;0.00;;;17.10;99.90;;;;;;26433695;22;20168;-75
2022/05/31 04:58:57;;;;;;;0.20;0.10;;;17.00;99.90;;;;;;26429754;22;20211;-74
2022/05/31 05:09:03;;;;;;;0.20;0.10;;;17.30;99.90;;;;;;26432219;22;20169;-75
2022/05/31 05:19:07;;;;;;;0.20;0.07;;;17.40;99.90;;;;;;26405509;22;20205;-78
2022/05/31 05:39:34;;;;;;;0.20;0.00;;;18.20;99.90;;;;;;26429162;22;20193;-77
2022/05/31 05:49:45;;;;;;;0.20;0.00;;;18.60;99.90;;;;;;26400086;22;20182;-75
2022/05/31 05:59:49;;;;;;;0.20;0.10;;;18.90;99.90;;;;;;26395891;22;20200;-74
2022/05/31 06:10:05;;;;;;;0.20;0.10;;;19.50;99.90;;;;;;26421171;22;20184;-74
2022/05/31 06:20:11;;;;;;;0.20;0.10;;;20.10;99.90;;;;;;26396566;22;20221;-75
2022/05/31 06:30:17;;;;;;;0.20;0.10;;;20.20;99.90;;;;;;26420526;22;20628;-76
2022/05/31 06:40:20;;;;;;;0.20;0.10;;;20.20;99.90;;;;;;26396604;22;20178;-76
2022/05/31 06:50:26;;;;;;;0.20;0.10;;;20.10;99.90;;;;;;26398476;22;20155;-77
2022/05/31 07:00:29;;;;;;;0.20;0.00;;;20.50;99.90;;;;;;26394398;22;20196;-76
2022/05/31 07:10:35;;;;;;;0.20;0.10;;;21.00;99.90;;;;;;26396104;22;20165;-74
2022/05/31 07:20:39;;;;;;;0.20;0.10;;;20.70;99.90;;;;;;26393897;22;20197;-72
2022/05/31 07:30:44;;;;;;;0.20;0.10;;;20.70;99.90;;;;;;26399696;22;20190;-75
2022/05/31 07:40:48;;;;;;;0.20;0.00;;;20.70;99.90;;;;;;26424648;22;20182;-76
2022/05/31 07:50:53;;;;;;;0.20;0.10;;;20.80;99.90;;;;;;26402624;22;20163;-77
2022/05/31 08:00:57;;;;;;;0.20;0.10;;;21.30;99.90;;;;;;26427011;22;20182;-78
2022/05/31 08:11:05;;;;;;;0.20;0.00;;;21.60;99.90;;;;;;26402314;22;20177;-74
2022/05/31 08:21:12;;;;;;;0.20;0.10;;;21.50;99.90;;;;;;26395062;22;20185;-73
2022/05/31 08:31:36;;;;;;;0.20;0.00;;;21.40;99.90;;;;;;26421114;22;20250;-73
2022/05/31 08:41:45;;;;;;;0.20;0.00;;;21.70;99.90;;;;;;26393687;22;20198;-72
2022/05/31 08:52:03;;;;;;;0.20;0.00;;;21.80;99.90;;;;;;26419776;22;20197;-74
2022/05/31 09:02:16;;;;;;;0.20;0.00;;;22.10;99.90;;;;;;26393087;22;20186;-75
2022/05/31 09:12:45;;;;;;;0.20;0.10;;;22.00;99.90;;;;;;26421567;22;20161;-75
2022/05/31 09:22:50;;;;;;;0.20;0.00;;;22.20;99.90;;;;;;26416452;22;20185;-75
2022/05/31 09:33:16;;;;;;;0.20;0.00;;;22.10;99.90;;;;;;26416849;22;20186;-74
2022/05/31 09:43:30;;;;;;;0.20;0.00;;;22.30;99.90;;;;;;26390114;22;20190;-75
2022/05/31 10:04:08;;;;;;;0.20;0.00;;;22.70;99.90;;;;;;26415074;22;20178;-75
2022/05/31 10:14:25;;;;;;;0.20;0.00;;;22.70;99.90;;;;;;26390089;22;20166;-76
2022/05/31 10:24:30;;;;;;;0.20;0.00;;;23.10;99.90;;;;;;26412752;22;20192;-74
2022/05/31 10:34:40;;;;;;;0.20;0.10;;;23.30;99.90;;;;;;26385304;22;20193;-72
2022/05/31 10:44:51;;;;;;;0.20;0.00;;;23.30;99.90;;;;;;26385213;22;20177;-75
2022/05/31 10:55:08;;;;;;;0.20;0.00;;;23.60;99.90;;;;;;26386632;22;20186;-73
2022/05/31 11:05:14;;;;;;;0.20;0.00;;;23.80;99.90;;;;;;26386224;22;20166;-77
2022/05/31 11:15:39;;;;;;;0.20;0.10;;;24.00;99.90;;;;;;26415141;22;20182;-73
2022/05/31 11:26:07;;;;;;;0.20;0.00;;;24.40;99.90;;;;;;26412268;22;20226;-71
2022/05/31 11:36:43;;;;;;;0.20;0.10;;;25.10;99.90;;;;;;26412776;22;20197;-71
2022/05/31 11:46:54;;;;;;;0.20;0.10;;;25.40;99.90;;;;;;26384214;22;20173;-71
2022/05/31 11:57:14;;;;;;;0.20;0.00;;;26.00;99.90;;;;;;26411466;22;20190;-71
2022/05/31 12:07:22;;;;;;;0.20;0.00;;;26.50;99.90;;;;;;26382852;22;20173;-73
2022/05/31 12:17:37;;;;;;;0.20;0.00;;;26.80;99.90;;;;;;26384176;22;20194;-73
2022/05/31 12:27:45;;;;;;;0.20;0.10;;;26.90;99.90;;;;;;26412321;22;20190;-74
2022/05/31 12:37:53;;;;;;;0.20;0.10;;;27.40;99.90;;;;;;26357703;22;20188;-76
2022/05/31 12:47:59;;;;;;;0.20;0.00;;;27.80;99.90;;;;;;26417595;22;20162;-75
2022/05/31 13:08:56;;;;;;;0.20;0.00;;;28.60;99.90;;;;;;26389078;22;20165;-77
2022/05/31 13:29:23;;;;;;;0.20;0.00;;;28.70;99.90;;;;;;26413138;22;20205;-76
2022/05/31 13:39:29;;;;;;;0.20;0.05;;;28.90;99.90;;;;;;26414563;22;20181;-78
2022/05/31 13:49:39;;;;;;;0.20;0.00;;;29.40;99.90;;;;;;26416566;22;20173;-76
2022/05/31 13:59:49;;;;;;;0.20;0.00;;;28.90;99.90;;;;;;26413134;22;20197;-77
2022/05/31 14:09:58;;;;;;;0.20;0.00;;;29.10;99.90;;;;;;26412803;22;20165;-77
2022/05/31 14:20:05;;;;;;;0.20;0.00;;;29.00;99.90;;;;;;26413006;22;20205;-78
2022/05/31 14:30:12;;;;;;;0.20;0.00;;;29.70;99.90;;;;;;26411464;22;20190;-76
2022/05/31 14:40:30;;;;;;;0.20;0.00;;;30.30;99.90;;;;;;26379530;22;20257;-76
2022/05/31 14:50:38;;;;;;;0.20;0.10;;;30.00;99.90;;;;;;26384631;22;20170;-79
2022/05/31 15:00:45;;;;;;;0.20;0.00;;;29.70;99.90;;;;;;26380990;22;20251;-76
2022/05/31 15:18:56;;;;;;;0.20;0.10;;;29.60;99.90;;;;;;26409171;22;20162;-77
2022/05/31 15:21:21;;;;;;;0.20;0.00;;;29.90;99.90;;;;;;26406434;22;20977;-70
2022/05/31 15:31:31;;;;;;;0.20;0.00;;;30.10;99.90;;;;;;26403857;22;20189;-75
2022/05/31 15:41:56;;;;;;;0.20;0.00;;;30.10;99.90;;;;;;26408423;22;20190;-73
2022/05/31 15:52:16;;;;;;;0.20;0.00;;;30.20;99.90;;;;;;26413068;22;20186;-75
2022/05/31 16:02:22;;;;;;;0.20;0.00;;;29.30;99.90;;;;;;26390803;22;20189;-74
2022/05/31 16:12:28;;;;;;;0.20;0.00;;;29.20;99.90;;;;;;26414117;22;20147;-69
2022/05/31 16:22:40;;;;;;;0.20;0.00;;;28.80;99.90;;;;;;26388044;22;20190;-74
2022/05/31 16:32:45;;;;;;;0.20;0.00;;;27.30;99.90;;;;;;26386410;22;20185;-75
2022/05/31 16:42:50;;;;;;;0.20;0.00;;;27.50;99.90;;;;;;26420403;22;20190;-77
2022/05/31 16:52:54;;;;;;;0.20;0.00;;;26.60;99.90;;;;;;26424880;22;20260;-76
2022/05/31 17:03:01;;;;;;;0.20;0.00;;;27.70;99.90;;;;;;26427938;22;20197;-75
2022/05/31 17:23:33;;;;;;;0.20;0.00;;;29.10;99.90;;;;;;26385454;22;20194;-74
2022/05/31 17:33:36;;;;;;;0.20;0.00;;;28.10;99.90;;;;;;26421843;22;20193;-75
2022/05/31 17:43:42;;;;;;;0.20;0.00;;;28.10;99.90;;;;;;26423646;22;20182;-75
2022/05/31 17:53:46;;;;;;;0.20;0.10;;;28.10;99.90;;;;;;26424613;22;20190;-75
2022/05/31 18:03:51;;;;;;;0.20;0.00;;;27.50;99.90;;;;;;26404484;22;20201;-75
2022/05/31 18:13:56;;;;;;;0.20;0.00;;;27.70;99.90;;;;;;26396551;22;20218;-78
2022/05/31 18:24:13;;;;;;;0.20;0.00;;;27.20;99.90;;;;;;26400334;22;20177;-76
2022/05/31 18:34:17;;;;;;;0.20;0.00;;;26.90;99.90;;;;;;26398646;22;20189;-72
2022/05/31 18:44:22;;;;;;;0.20;0.00;;;25.40;99.90;;;;;;26422324;22;20181;-74
2022/05/31 18:54:26;;;;;;;0.20;0.00;;;24.60;99.90;;;;;;26395552;22;20197;-72
2022/05/31 19:04:31;;;;;;;0.20;0.10;;;23.10;99.90;;;;;;26391846;22;20178;-71
2022/05/31 19:14:40;;;;;;;0.20;0.00;;;22.60;99.90;;;;;;26422549;22;20160;-73
2022/05/31 19:24:46;;;;;;;0.20;0.00;;;22.50;99.90;;;;;;26391280;22;20196;-73
2022/05/31 19:34:52;;;;;;;0.20;0.00;;;22.30;99.90;;;;;;26421768;22;20190;-73
2022/05/31 19:44:57;;;;;;;0.20;0.00;;;22.20;99.90;;;;;;26397450;22;20182;-73
2022/05/31 19:55:03;;;;;;;0.20;0.00;;;22.10;99.90;;;;;;26416390;22;20666;-74
2022/05/31 20:05:09;;;;;;;0.20;0.00;;;21.90;99.90;;;;;;26375827;22;20170;-73
2022/05/31 20:15:21;;;;;;;0.20;0.00;;;21.80;99.90;;;;;;26421942;22;20162;-75
2022/05/31 20:25:26;;;;;;;0.20;0.00;;;21.80;99.90;;;;;;26424255;22;20186;-74
2022/05/31 20:35:31;;;;;;;0.20;0.00;;;21.80;99.90;;;;;;26420959;22;20186;-73
2022/05/31 20:45:37;;;;;;;0.20;0.00;;;21.70;99.90;;;;;;26423791;22;20190;-77
2022/05/31 20:55:41;;;;;;;0.20;0.00;;;21.80;99.90;;;;;;26425162;22;20182;-77
2022/05/31 21:05:46;;;;;;;0.20;0.00;;;21.70;99.90;;;;;;26396705;22;20174;-75
2022/05/31 21:15:56;;;;;;;0.20;0.00;;;21.60;99.90;;;;;;26372810;22;20162;-73
2022/05/31 21:26:01;;;;;;;0.20;0.00;;;21.60;99.90;;;;;;26426307;22;20182;-73
2022/05/31 21:36:07;;;;;;;0.20;0.00;;;21.50;99.90;;;;;;26322935;22;1854007;-75
2022/05/31 21:46:13;;;;;;;0.20;0.00;;;21.60;99.90;;;;;;26404958;22;20186;-76
2022/05/31 21:56:21;;;;;;;0.20;0.00;;;21.40;99.90;;;;;;26401978;22;20190;-77
2022/05/31 22:06:27;;;;;;;0.20;0.00;;;21.50;99.90;;;;;;26402803;22;20194;-77
2022/05/31 22:16:32;;;;;;;0.20;0.00;;;21.40;99.90;;;;;;26431713;22;20174;-78
2022/05/31 22:26:38;;;;;;;0.20;0.00;;;21.30;99.90;;;;;;26431559;22;20202;-76
2022/05/31 22:36:42;;;;;;;0.20;0.00;;;20.90;99.90;;;;;;26404868;22;20158;-76
2022/05/31 22:46:47;;;;;;;0.20;0.10;;;20.70;99.90;;;;;;26430655;22;20194;-76
2022/05/31 22:56:51;;;;;;;0.20;0.00;;;20.50;99.90;;;;;;26431033;22;20186;-76
2022/05/31 23:06:56;;;;;;;0.20;0.00;;;20.30;99.90;;;;;;26428269;22;20185;-77
2022/05/31 23:17:03;;;;;;;0.20;0.00;;;19.90;99.90;;;;;;26430379;22;20539;-75
2022/05/31 23:27:09;;;;;;;0.20;0.10;;;19.70;99.90;;;;;;26428577;22;20198;-74
2022/05/31 23:37:13;;;;;;;0.20;0.10;;;19.60;99.90;;;;;;26402761;22;20166;-74
2022/05/31 23:47:18;;;;;;;0.20;0.00;;;19.50;99.90;;;;;;26428349;22;20162;-74
2022/05/31 23:57:22;;;;;;;0.20;0.00;;;19.40;99.90;;;;;;26428422;22;20190;-75
